Flight Track Log - Related Links

Times and Time Zones

All times are in EDT time to prevent confusion due to time zone crossing. See the SKW4664 flight status page for this flight to view local times or setup timezone preferences in your user account.

Time Position Orientation Groundspeed Altitude Reporting Facility
EDT Latitude Longitude Course Direction KTS MPH feet Rate Location/Type
Tue 12:09:36 PM 43.5139 -96.7850 198° South 174 200 4,300  Level Minneapolis Center
Tue 12:10:38 PM 43.5208 -96.6708 85° East 254 292 6,400 2,274 Climbing Minneapolis Center
Tue 12:11:00 PM 43.8523 -96.2348 53° Northeast  Level FlightAware Approximate
Tue 12:11:40 PM 43.5756 -96.5800 50° Northeast 288 331 9,000  Level Minneapolis Center
Tue 12:12:00 PM 43.9222 -96.1069 52° Northeast  Level FlightAware Approximate
Tue 12:12:42 PM 43.6339 -96.4897 48° Northeast 307 353 10,800  Level Minneapolis Center
Tue 12:13:00 PM 43.9935 -95.9804 52° Northeast  Level FlightAware Approximate
Tue 12:13:44 PM 43.6942 -96.3939 49° Northeast 323 372 12,800  Level Minneapolis Center
Tue 12:14:47 PM 43.7556 -96.2953 49° Northeast 336 387 14,400 1,488 Climbing Minneapolis Center
Tue 12:15:49 PM 43.8206 -96.1906 49° Northeast 356 410 15,900 1,258 Climbing Minneapolis Center
Tue 12:16:51 PM 43.9008 -96.0625 49° Northeast 369 425 17,000 532 Climbing Minneapolis Center
Tue 12:17:53 PM 43.9681 -95.9533 49° Northeast 375 432 17,000  Level Minneapolis Center
Tue 12:18:55 PM 44.0353 -95.8444 49° Northeast 376 433 17,000  Level Minneapolis Center
Tue 12:19:57 PM 44.1006 -95.7386 49° Northeast 368 423 17,000  Level Minneapolis Center
Tue 12:20:59 PM 44.1769 -95.6139 49° Northeast 359 413 17,000  Level Minneapolis Center
Tue 12:22:01 PM 44.2258 -95.4986 59° Northeast 352 405 17,000  Level Minneapolis Center
Tue 12:23:03 PM 44.2697 -95.3756 63° Northeast 355 409 17,000  Level Minneapolis Center
Tue 12:24:05 PM 44.3147 -95.2497 63° Northeast 360 414 17,000  Level Minneapolis Center
Tue 12:25:07 PM 44.3597 -95.1231 64° Northeast 364 419 17,000  Level Minneapolis Center
Tue 12:26:09 PM 44.4044 -94.9947 64° Northeast 367 422 17,000  Level Minneapolis Center
Tue 12:27:11 PM 44.4575 -94.8417 64° Northeast 367 422 17,000  Level Minneapolis Center
Tue 12:28:13 PM 44.5022 -94.7150 64° Northeast 365 420 17,000  Level Minneapolis Center
Tue 12:29:16 PM 44.5497 -94.5781 64° Northeast 362 417 17,000 -768 Level Minneapolis Center
Tue 12:30:18 PM 44.5936 -94.4492 64° Northeast 365 420 15,400 -1,790 Descending Minneapolis Center
Tue 12:31:20 PM 44.6375 -94.3228 64° Northeast 362 417 13,300 -1,984 Descending Minneapolis Center
Tue 12:32:22 PM 44.6797 -94.1986 64° Northeast 352 405 11,300 -1,113 Descending Minneapolis Center
Tue 12:33:24 PM 44.7111 -94.0786 70° East 323 372 11,000 -629 Descending Minneapolis Center
Tue 12:34:26 PM 44.7394 -93.9608 71° East 318 366 10,000 -1,016 Descending Minneapolis Center
Tue 12:35:28 PM 44.7958 -93.8650 50° Northeast 317 365 8,900 -1,113 Descending Minneapolis Center
Tue 12:36:30 PM 44.8594 -93.7550 51° Northeast 302 348 7,700 -919 Descending Minneapolis Center
Tue 12:37:32 PM 44.9119 -93.6611 52° Northeast 303 349 7,000 -484 Descending Minneapolis Center
Tue 12:38:34 PM 44.9628 -93.5981 41° Northeast 239 275 6,700 -581 Descending Minneapolis Center
Tue 12:39:36 PM 44.9883 -93.5267 63° Northeast 234 269 5,800 -1,016 Descending Minneapolis Center
Tue 12:40:38 PM 44.9769 -93.4464 101° East 210 242 4,600 -1,161 Descending Minneapolis Center
Tue 12:41:40 PM 44.9525 -93.3825 118° Southeast 186 214 3,400 -1,161 Descending Minneapolis Center

Login

Don't have an account? Register now (free) for customized features, flight alerts, and more!